sensor_id;sensor_type;location;lat;lon;timestamp;P1;durP1;ratioP1;P2;durP2;ratioP2
18280;SDS011;9266;51.132;17.062;2023-06-22T00:00:13;19.17;;;17.40;;
18280;SDS011;9266;51.132;17.062;2023-06-22T00:02:40;19.07;;;17.07;;
18280;SDS011;9266;51.132;17.062;2023-06-22T00:05:07;19.53;;;17.47;;
18280;SDS011;9266;51.132;17.062;2023-06-22T00:07:34;18.53;;;16.63;;
18280;SDS011;9266;51.132;17.062;2023-06-22T00:10:03;18.37;;;16.67;;
18280;SDS011;9266;51.132;17.062;2023-06-22T00:12:30;18.67;;;16.87;;
18280;SDS011;9266;51.132;17.062;2023-06-22T00:14:57;18.93;;;17.07;;
18280;SDS011;9266;51.132;17.062;2023-06-22T00:17:24;20.47;;;18.47;;
18280;SDS011;9266;51.132;17.062;2023-06-22T00:19:51;19.90;;;18.00;;
18280;SDS011;9266;51.132;17.062;2023-06-22T00:22:20;19.10;;;17.20;;
18280;SDS011;9266;51.132;17.062;2023-06-22T00:24:53;18.63;;;16.73;;
18280;SDS011;9266;51.132;17.062;2023-06-22T00:27:21;18.77;;;16.87;;
18280;SDS011;9266;51.132;17.062;2023-06-22T00:29:48;19.67;;;17.77;;
18280;SDS011;9266;51.132;17.062;2023-06-22T00:32:15;18.60;;;16.77;;
18280;SDS011;9266;51.132;17.062;2023-06-22T00:34:42;18.90;;;17.20;;
18280;SDS011;9266;51.132;17.062;2023-06-22T00:37:09;18.80;;;16.97;;
18280;SDS011;9266;51.132;17.062;2023-06-22T00:39:37;18.37;;;16.70;;
18280;SDS011;9266;51.132;17.062;2023-06-22T00:42:04;19.80;;;17.93;;
18280;SDS011;9266;51.132;17.062;2023-06-22T00:44:33;19.00;;;17.20;;
18280;SDS011;9266;51.132;17.062;2023-06-22T00:47:00;18.90;;;17.17;;
18280;SDS011;9266;51.132;17.062;2023-06-22T00:49:27;20.00;;;18.00;;
18280;SDS011;9266;51.132;17.062;2023-06-22T00:51:54;20.77;;;18.20;;
18280;SDS011;9266;51.132;17.062;2023-06-22T00:54:22;20.10;;;18.20;;
18280;SDS011;9266;51.132;17.062;2023-06-22T00:56:50;21.10;;;17.80;;
18280;SDS011;9266;51.132;17.062;2023-06-22T00:59:20;18.93;;;16.80;;
18280;SDS011;9266;51.132;17.062;2023-06-22T01:01:48;24.50;;;18.40;;
18280;SDS011;9266;51.132;17.062;2023-06-22T01:04:15;19.50;;;17.70;;
18280;SDS011;9266;51.132;17.062;2023-06-22T01:06:45;20.27;;;18.27;;
18280;SDS011;9266;51.132;17.062;2023-06-22T01:09:20;19.10;;;17.20;;
18280;SDS011;9266;51.132;17.062;2023-06-22T01:12:00;19.03;;;17.33;;
18280;SDS011;9266;51.132;17.062;2023-06-22T01:14:32;18.87;;;17.07;;
18280;SDS011;9266;51.132;17.062;2023-06-22T01:17:04;19.80;;;17.87;;
18280;SDS011;9266;51.132;17.062;2023-06-22T01:19:35;18.67;;;16.87;;
18280;SDS011;9266;51.132;17.062;2023-06-22T01:22:07;20.57;;;18.47;;
18280;SDS011;9266;51.132;17.062;2023-06-22T01:24:41;19.87;;;17.87;;
18280;SDS011;9266;51.132;17.062;2023-06-22T01:27:19;19.33;;;17.40;;
18280;SDS011;9266;51.132;17.062;2023-06-22T01:30:03;19.13;;;17.33;;
18280;SDS011;9266;51.132;17.062;2023-06-22T01:32:35;21.47;;;18.27;;
18280;SDS011;9266;51.132;17.062;2023-06-22T01:35:05;19.03;;;17.27;;
18280;SDS011;9266;51.132;17.062;2023-06-22T01:37:33;19.80;;;17.80;;
18280;SDS011;9266;51.132;17.062;2023-06-22T01:40:01;19.33;;;17.50;;
18280;SDS011;9266;51.132;17.062;2023-06-22T01:42:30;19.73;;;17.80;;
18280;SDS011;9266;51.132;17.062;2023-06-22T01:44:58;18.77;;;16.77;;
18280;SDS011;9266;51.132;17.062;2023-06-22T01:47:27;20.47;;;18.20;;
18280;SDS011;9266;51.132;17.062;2023-06-22T01:49:55;20.27;;;18.20;;
18280;SDS011;9266;51.132;17.062;2023-06-22T01:52:22;20.17;;;18.17;;
18280;SDS011;9266;51.132;17.062;2023-06-22T01:54:49;18.93;;;17.10;;
18280;SDS011;9266;51.132;17.062;2023-06-22T01:57:16;19.20;;;17.40;;
18280;SDS011;9266;51.132;17.062;2023-06-22T01:59:45;18.83;;;17.03;;
18280;SDS011;9266;51.132;17.062;2023-06-22T02:02:15;19.50;;;17.50;;
18280;SDS011;9266;51.132;17.062;2023-06-22T02:04:46;20.60;;;18.00;;
18280;SDS011;9266;51.132;17.062;2023-06-22T02:07:15;19.50;;;17.67;;
18280;SDS011;9266;51.132;17.062;2023-06-22T02:09:43;19.97;;;17.83;;
18280;SDS011;9266;51.132;17.062;2023-06-22T02:12:11;20.97;;;18.83;;
18280;SDS011;9266;51.132;17.062;2023-06-22T02:14:39;19.93;;;18.03;;
18280;SDS011;9266;51.132;17.062;2023-06-22T02:17:08;19.93;;;17.93;;
18280;SDS011;9266;51.132;17.062;2023-06-22T02:19:36;19.83;;;17.90;;
18280;SDS011;9266;51.132;17.062;2023-06-22T02:22:04;21.33;;;19.23;;
18280;SDS011;9266;51.132;17.062;2023-06-22T02:24:32;19.97;;;17.87;;
18280;SDS011;9266;51.132;17.062;2023-06-22T02:26:59;21.53;;;19.43;;
18280;SDS011;9266;51.132;17.062;2023-06-22T02:29:27;20.47;;;18.37;;
18280;SDS011;9266;51.132;17.062;2023-06-22T02:31:54;23.10;;;19.07;;
18280;SDS011;9266;51.132;17.062;2023-06-22T02:34:21;21.33;;;19.23;;
18280;SDS011;9266;51.132;17.062;2023-06-22T02:36:49;25.63;;;19.37;;
18280;SDS011;9266;51.132;17.062;2023-06-22T02:39:19;21.60;;;19.40;;
18280;SDS011;9266;51.132;17.062;2023-06-22T02:41:47;21.40;;;19.30;;
18280;SDS011;9266;51.132;17.062;2023-06-22T02:44:14;20.77;;;18.77;;
18280;SDS011;9266;51.132;17.062;2023-06-22T02:46:42;22.53;;;20.23;;
18280;SDS011;9266;51.132;17.062;2023-06-22T02:49:09;24.80;;;19.77;;
18280;SDS011;9266;51.132;17.062;2023-06-22T02:51:37;21.53;;;19.30;;
18280;SDS011;9266;51.132;17.062;2023-06-22T02:54:05;22.33;;;19.70;;
18280;SDS011;9266;51.132;17.062;2023-06-22T02:56:34;23.00;;;20.23;;
18280;SDS011;9266;51.132;17.062;2023-06-22T02:59:01;22.73;;;20.40;;
18280;SDS011;9266;51.132;17.062;2023-06-22T03:01:29;23.90;;;21.50;;
18280;SDS011;9266;51.132;17.062;2023-06-22T03:04:02;22.43;;;20.13;;
18280;SDS011;9266;51.132;17.062;2023-06-22T03:06:30;23.70;;;20.43;;
18280;SDS011;9266;51.132;17.062;2023-06-22T03:08:58;22.03;;;19.73;;
18280;SDS011;9266;51.132;17.062;2023-06-22T03:11:26;19.93;;;18.07;;
18280;SDS011;9266;51.132;17.062;2023-06-22T03:13:54;20.57;;;17.57;;
18280;SDS011;9266;51.132;17.062;2023-06-22T03:16:22;20.00;;;18.00;;
18280;SDS011;9266;51.132;17.062;2023-06-22T03:18:49;19.23;;;17.33;;
18280;SDS011;9266;51.132;17.062;2023-06-22T03:21:16;18.03;;;16.30;;
18280;SDS011;9266;51.132;17.062;2023-06-22T03:23:43;18.57;;;16.63;;
18280;SDS011;9266;51.132;17.062;2023-06-22T03:26:11;17.60;;;15.80;;
18280;SDS011;9266;51.132;17.062;2023-06-22T03:28:38;17.90;;;15.97;;
18280;SDS011;9266;51.132;17.062;2023-06-22T03:31:07;17.63;;;16.00;;
18280;SDS011;9266;51.132;17.062;2023-06-22T03:33:34;17.23;;;15.43;;
18280;SDS011;9266;51.132;17.062;2023-06-22T03:36:02;17.17;;;15.23;;
18280;SDS011;9266;51.132;17.062;2023-06-22T03:38:29;17.70;;;16.00;;
18280;SDS011;9266;51.132;17.062;2023-06-22T03:40:57;17.87;;;15.93;;
18280;SDS011;9266;51.132;17.062;2023-06-22T03:43:24;17.67;;;15.70;;
18280;SDS011;9266;51.132;17.062;2023-06-22T03:45:51;16.75;;;15.05;;
18280;SDS011;9266;51.132;17.062;2023-06-22T03:48:20;17.60;;;14.80;;
18280;SDS011;9266;51.132;17.062;2023-06-22T03:50:47;16.90;;;15.30;;
18280;SDS011;9266;51.132;17.062;2023-06-22T03:53:14;17.93;;;16.23;;
18280;SDS011;9266;51.132;17.062;2023-06-22T03:55:47;17.30;;;15.70;;
18280;SDS011;9266;51.132;17.062;2023-06-22T03:58:15;18.17;;;16.37;;
18280;SDS011;9266;51.132;17.062;2023-06-22T04:00:44;17.55;;;15.85;;
18280;SDS011;9266;51.132;17.062;2023-06-22T04:03:11;19.30;;;16.30;;
18280;SDS011;9266;51.132;17.062;2023-06-22T04:05:40;17.55;;;15.90;;
18280;SDS011;9266;51.132;17.062;2023-06-22T04:08:07;18.35;;;16.50;;
18280;SDS011;9266;51.132;17.062;2023-06-22T04:10:35;18.00;;;16.20;;
18280;SDS011;9266;51.132;17.062;2023-06-22T04:13:02;18.35;;;16.45;;
18280;SDS011;9266;51.132;17.062;2023-06-22T04:15:29;18.00;;;16.30;;
18280;SDS011;9266;51.132;17.062;2023-06-22T04:17:56;19.20;;;17.13;;
18280;SDS011;9266;51.132;17.062;2023-06-22T04:20:24;19.35;;;17.40;;
18280;SDS011;9266;51.132;17.062;2023-06-22T04:22:53;18.75;;;16.75;;
18280;SDS011;9266;51.132;17.062;2023-06-22T04:25:20;19.15;;;17.17;;
18280;SDS011;9266;51.132;17.062;2023-06-22T04:27:48;17.95;;;16.05;;
18280;SDS011;9266;51.132;17.062;2023-06-22T04:30:16;21.23;;;19.05;;
18280;SDS011;9266;51.132;17.062;2023-06-22T04:32:43;20.95;;;18.88;;
18280;SDS011;9266;51.132;17.062;2023-06-22T04:35:10;21.30;;;19.05;;
18280;SDS011;9266;51.132;17.062;2023-06-22T04:37:41;21.67;;;19.55;;
18280;SDS011;9266;51.132;17.062;2023-06-22T04:40:09;21.45;;;18.65;;
18280;SDS011;9266;51.132;17.062;2023-06-22T04:42:39;20.90;;;18.70;;
18280;SDS011;9266;51.132;17.062;2023-06-22T04:45:18;20.52;;;18.35;;
18280;SDS011;9266;51.132;17.062;2023-06-22T04:47:45;20.42;;;18.23;;
18280;SDS011;9266;51.132;17.062;2023-06-22T04:50:12;20.80;;;18.70;;
18280;SDS011;9266;51.132;17.062;2023-06-22T04:52:40;20.90;;;18.90;;
18280;SDS011;9266;51.132;17.062;2023-06-22T04:55:07;21.42;;;19.15;;
18280;SDS011;9266;51.132;17.062;2023-06-22T04:57:36;21.05;;;18.90;;
18280;SDS011;9266;51.132;17.062;2023-06-22T05:00:05;20.65;;;18.52;;
18280;SDS011;9266;51.132;17.062;2023-06-22T05:02:37;21.42;;;18.98;;
18280;SDS011;9266;51.132;17.062;2023-06-22T05:05:05;19.98;;;17.85;;
18280;SDS011;9266;51.132;17.062;2023-06-22T05:07:32;21.55;;;19.38;;
18280;SDS011;9266;51.132;17.062;2023-06-22T05:10:00;20.08;;;18.08;;
18280;SDS011;9266;51.132;17.062;2023-06-22T05:12:27;20.45;;;18.45;;
18280;SDS011;9266;51.132;17.062;2023-06-22T05:14:56;20.02;;;17.90;;
18280;SDS011;9266;51.132;17.062;2023-06-22T05:17:23;19.38;;;17.48;;
18280;SDS011;9266;51.132;17.062;2023-06-22T05:19:51;20.73;;;18.60;;
18280;SDS011;9266;51.132;17.062;2023-06-22T05:22:18;21.70;;;19.52;;
18280;SDS011;9266;51.132;17.062;2023-06-22T05:24:46;21.58;;;19.13;;
18280;SDS011;9266;51.132;17.062;2023-06-22T05:27:13;19.63;;;17.23;;
18280;SDS011;9266;51.132;17.062;2023-06-22T05:29:41;19.40;;;17.40;;
18280;SDS011;9266;51.132;17.062;2023-06-22T05:32:10;19.15;;;17.25;;
18280;SDS011;9266;51.132;17.062;2023-06-22T05:34:37;18.48;;;16.33;;
18280;SDS011;9266;51.132;17.062;2023-06-22T05:37:04;16.73;;;14.95;;
18280;SDS011;9266;51.132;17.062;2023-06-22T05:39:34;18.27;;;14.85;;
18280;SDS011;9266;51.132;17.062;2023-06-22T05:42:03;14.98;;;13.38;;
18280;SDS011;9266;51.132;17.062;2023-06-22T05:44:31;14.57;;;13.18;;
18280;SDS011;9266;51.132;17.062;2023-06-22T05:46:59;14.15;;;12.77;;
18280;SDS011;9266;51.132;17.062;2023-06-22T05:49:27;14.68;;;12.77;;
18280;SDS011;9266;51.132;17.062;2023-06-22T05:51:57;12.98;;;11.68;;
18280;SDS011;9266;51.132;17.062;2023-06-22T05:54:27;12.90;;;11.07;;
18280;SDS011;9266;51.132;17.062;2023-06-22T05:56:54;13.88;;;12.40;;
18280;SDS011;9266;51.132;17.062;2023-06-22T05:59:21;12.93;;;11.25;;
18280;SDS011;9266;51.132;17.062;2023-06-22T06:01:48;12.25;;;11.15;;
18280;SDS011;9266;51.132;17.062;2023-06-22T06:04:16;13.38;;;10.68;;
18280;SDS011;9266;51.132;17.062;2023-06-22T06:06:45;14.82;;;10.13;;
18280;SDS011;9266;51.132;17.062;2023-06-22T06:09:13;12.25;;;11.07;;
18280;SDS011;9266;51.132;17.062;2023-06-22T06:11:40;12.15;;;10.95;;
18280;SDS011;9266;51.132;17.062;2023-06-22T06:14:07;12.70;;;11.07;;
18280;SDS011;9266;51.132;17.062;2023-06-22T06:16:34;13.80;;;12.38;;
18280;SDS011;9266;51.132;17.062;2023-06-22T06:19:02;12.30;;;11.10;;
18280;SDS011;9266;51.132;17.062;2023-06-22T06:21:29;12.25;;;10.95;;
18280;SDS011;9266;51.132;17.062;2023-06-22T06:23:57;13.70;;;11.60;;
18280;SDS011;9266;51.132;17.062;2023-06-22T06:26:25;13.40;;;12.00;;
18280;SDS011;9266;51.132;17.062;2023-06-22T06:28:55;14.32;;;12.93;;
18280;SDS011;9266;51.132;17.062;2023-06-22T06:31:22;14.38;;;13.05;;
18280;SDS011;9266;51.132;17.062;2023-06-22T06:33:49;14.77;;;12.65;;
18280;SDS011;9266;51.132;17.062;2023-06-22T06:36:16;14.13;;;12.73;;
18280;SDS011;9266;51.132;17.062;2023-06-22T06:38:44;14.60;;;13.18;;
18280;SDS011;9266;51.132;17.062;2023-06-22T06:41:13;15.25;;;13.65;;
18280;SDS011;9266;51.132;17.062;2023-06-22T06:43:41;15.13;;;12.73;;
18280;SDS011;9266;51.132;17.062;2023-06-22T06:46:08;16.67;;;13.98;;
18280;SDS011;9266;51.132;17.062;2023-06-22T06:48:35;15.20;;;13.60;;
18280;SDS011;9266;51.132;17.062;2023-06-22T06:51:03;16.35;;;14.75;;
18280;SDS011;9266;51.132;17.062;2023-06-22T06:53:30;15.63;;;13.95;;
18280;SDS011;9266;51.132;17.062;2023-06-22T06:55:57;14.18;;;12.77;;
18280;SDS011;9266;51.132;17.062;2023-06-22T06:58:26;14.43;;;12.88;;
18280;SDS011;9266;51.132;17.062;2023-06-22T07:00:53;13.32;;;12.02;;
18280;SDS011;9266;51.132;17.062;2023-06-22T07:03:20;13.63;;;12.43;;
18280;SDS011;9266;51.132;17.062;2023-06-22T07:05:48;13.82;;;12.52;;
18280;SDS011;9266;51.132;17.062;2023-06-22T07:08:15;14.82;;;13.50;;
18280;SDS011;9266;51.132;17.062;2023-06-22T07:10:42;14.35;;;13.05;;
18280;SDS011;9266;51.132;17.062;2023-06-22T07:13:09;15.02;;;13.63;;
18280;SDS011;9266;51.132;17.062;2023-06-22T07:15:38;16.58;;;14.93;;
18280;SDS011;9266;51.132;17.062;2023-06-22T07:18:05;17.88;;;14.23;;
18280;SDS011;9266;51.132;17.062;2023-06-22T07:20:32;17.35;;;14.38;;
18280;SDS011;9266;51.132;17.062;2023-06-22T07:22:59;14.57;;;13.23;;
18280;SDS011;9266;51.132;17.062;2023-06-22T07:25:27;14.43;;;12.93;;
18280;SDS011;9266;51.132;17.062;2023-06-22T07:27:58;14.57;;;13.18;;
18280;SDS011;9266;51.132;17.062;2023-06-22T07:30:26;13.80;;;12.40;;
18280;SDS011;9266;51.132;17.062;2023-06-22T07:32:55;14.18;;;12.88;;
18280;SDS011;9266;51.132;17.062;2023-06-22T07:35:22;12.73;;;11.52;;
18280;SDS011;9266;51.132;17.062;2023-06-22T07:37:50;13.50;;;12.18;;
18280;SDS011;9266;51.132;17.062;2023-06-22T07:40:17;15.13;;;13.73;;
18280;SDS011;9266;51.132;17.062;2023-06-22T07:42:44;12.73;;;11.55;;
18280;SDS011;9266;51.132;17.062;2023-06-22T07:45:13;14.32;;;12.35;;
18280;SDS011;9266;51.132;17.062;2023-06-22T07:47:40;12.85;;;11.75;;
18280;SDS011;9266;51.132;17.062;2023-06-22T07:50:09;13.27;;;12.07;;
18280;SDS011;9266;51.132;17.062;2023-06-22T07:52:37;12.70;;;11.48;;
18280;SDS011;9266;51.132;17.062;2023-06-22T07:55:04;13.05;;;11.85;;
18280;SDS011;9266;51.132;17.062;2023-06-22T07:57:31;14.00;;;12.70;;
18280;SDS011;9266;51.132;17.062;2023-06-22T07:59:59;14.15;;;12.80;;
18280;SDS011;9266;51.132;17.062;2023-06-22T08:02:29;14.43;;;13.13;;
18280;SDS011;9266;51.132;17.062;2023-06-22T08:04:56;13.90;;;12.63;;
18280;SDS011;9266;51.132;17.062;2023-06-22T08:07:24;15.15;;;13.52;;
18280;SDS011;9266;51.132;17.062;2023-06-22T08:09:51;14.70;;;13.30;;
18280;SDS011;9266;51.132;17.062;2023-06-22T08:12:19;16.15;;;14.35;;
18280;SDS011;9266;51.132;17.062;2023-06-22T08:14:46;14.50;;;13.20;;
18280;SDS011;9266;51.132;17.062;2023-06-22T08:17:13;15.13;;;13.55;;
18280;SDS011;9266;51.132;17.062;2023-06-22T08:19:41;13.65;;;11.98;;
18280;SDS011;9266;51.132;17.062;2023-06-22T08:22:08;13.40;;;11.85;;
18280;SDS011;9266;51.132;17.062;2023-06-22T08:24:37;13.43;;;12.13;;
18280;SDS011;9266;51.132;17.062;2023-06-22T08:27:05;14.38;;;12.18;;
18280;SDS011;9266;51.132;17.062;2023-06-22T08:29:34;12.98;;;11.77;;
18280;SDS011;9266;51.132;17.062;2023-06-22T08:32:02;12.45;;;11.35;;
18280;SDS011;9266;51.132;17.062;2023-06-22T08:34:29;12.05;;;10.75;;
18280;SDS011;9266;51.132;17.062;2023-06-22T08:36:56;11.93;;;10.55;;
18280;SDS011;9266;51.132;17.062;2023-06-22T08:39:23;12.15;;;10.95;;
18280;SDS011;9266;51.132;17.062;2023-06-22T08:41:54;12.98;;;11.35;;
18280;SDS011;9266;51.132;17.062;2023-06-22T08:44:21;13.77;;;11.70;;
18280;SDS011;9266;51.132;17.062;2023-06-22T08:46:48;12.88;;;11.45;;
18280;SDS011;9266;51.132;17.062;2023-06-22T08:49:15;12.05;;;10.85;;
18280;SDS011;9266;51.132;17.062;2023-06-22T08:51:42;12.05;;;10.93;;
18280;SDS011;9266;51.132;17.062;2023-06-22T08:54:12;12.15;;;11.05;;
18280;SDS011;9266;51.132;17.062;2023-06-22T08:56:39;11.55;;;10.45;;
18280;SDS011;9266;51.132;17.062;2023-06-22T08:59:10;12.10;;;10.90;;
18280;SDS011;9266;51.132;17.062;2023-06-22T09:01:37;12.52;;;11.30;;
18280;SDS011;9266;51.132;17.062;2023-06-22T09:04:04;12.18;;;10.48;;
18280;SDS011;9266;51.132;17.062;2023-06-22T09:06:34;11.68;;;10.57;;
18280;SDS011;9266;51.132;17.062;2023-06-22T09:09:06;11.88;;;10.63;;
18280;SDS011;9266;51.132;17.062;2023-06-22T09:11:33;10.38;;;9.35;;
18280;SDS011;9266;51.132;17.062;2023-06-22T09:14:00;10.60;;;9.63;;
18280;SDS011;9266;51.132;17.062;2023-06-22T09:16:30;10.00;;;9.10;;
18280;SDS011;9266;51.132;17.062;2023-06-22T09:18:57;10.73;;;9.60;;
18280;SDS011;9266;51.132;17.062;2023-06-22T09:21:24;11.43;;;9.35;;
18280;SDS011;9266;51.132;17.062;2023-06-22T09:23:51;10.45;;;9.40;;
18280;SDS011;9266;51.132;17.062;2023-06-22T09:26:19;10.70;;;9.75;;
18280;SDS011;9266;51.132;17.062;2023-06-22T09:28:47;9.85;;;8.85;;
18280;SDS011;9266;51.132;17.062;2023-06-22T09:31:14;10.35;;;9.30;;
18280;SDS011;9266;51.132;17.062;2023-06-22T09:33:43;10.80;;;9.50;;
18280;SDS011;9266;51.132;17.062;2023-06-22T09:36:12;10.15;;;9.15;;
18280;SDS011;9266;51.132;17.062;2023-06-22T09:38:41;9.70;;;8.77;;
18280;SDS011;9266;51.132;17.062;2023-06-22T09:41:09;9.98;;;9.07;;
18280;SDS011;9266;51.132;17.062;2023-06-22T09:43:36;9.90;;;8.93;;
18280;SDS011;9266;51.132;17.062;2023-06-22T09:46:03;10.60;;;9.55;;
18280;SDS011;9266;51.132;17.062;2023-06-22T09:48:32;10.93;;;9.82;;
18280;SDS011;9266;51.132;17.062;2023-06-22T09:51:03;13.05;;;9.63;;
18280;SDS011;9266;51.132;17.062;2023-06-22T09:53:30;12.63;;;9.95;;
18280;SDS011;9266;51.132;17.062;2023-06-22T09:55:57;10.98;;;9.85;;
18280;SDS011;9266;51.132;17.062;2023-06-22T09:58:25;11.00;;;10.00;;
18280;SDS011;9266;51.132;17.062;2023-06-22T10:00:52;9.65;;;8.65;;
18280;SDS011;9266;51.132;17.062;2023-06-22T10:03:20;9.65;;;8.75;;
18280;SDS011;9266;51.132;17.062;2023-06-22T10:05:47;9.90;;;9.00;;
18280;SDS011;9266;51.132;17.062;2023-06-22T10:08:16;9.75;;;8.88;;
18280;SDS011;9266;51.132;17.062;2023-06-22T10:10:43;11.25;;;10.15;;
18280;SDS011;9266;51.132;17.062;2023-06-22T10:13:10;11.25;;;10.18;;
18280;SDS011;9266;51.132;17.062;2023-06-22T10:15:38;10.88;;;9.88;;
18280;SDS011;9266;51.132;17.062;2023-06-22T10:18:05;11.05;;;10.05;;
18280;SDS011;9266;51.132;17.062;2023-06-22T10:20:32;10.32;;;9.32;;
18280;SDS011;9266;51.132;17.062;2023-06-22T10:23:00;11.63;;;10.45;;
18280;SDS011;9266;51.132;17.062;2023-06-22T10:25:28;10.85;;;9.85;;
18280;SDS011;9266;51.132;17.062;2023-06-22T10:27:55;10.68;;;9.43;;
18280;SDS011;9266;51.132;17.062;2023-06-22T10:30:23;10.65;;;9.63;;
18280;SDS011;9266;51.132;17.062;2023-06-22T10:32:50;10.00;;;9.10;;
18280;SDS011;9266;51.132;17.062;2023-06-22T10:35:17;9.75;;;8.85;;
18280;SDS011;9266;51.132;17.062;2023-06-22T10:37:45;10.07;;;9.18;;
18280;SDS011;9266;51.132;17.062;2023-06-22T10:40:13;9.57;;;8.75;;
18280;SDS011;9266;51.132;17.062;2023-06-22T10:42:42;9.90;;;9.00;;
18280;SDS011;9266;51.132;17.062;2023-06-22T10:45:09;10.50;;;9.50;;
18280;SDS011;9266;51.132;17.062;2023-06-22T10:47:37;10.00;;;9.00;;
18280;SDS011;9266;51.132;17.062;2023-06-22T10:50:05;9.77;;;8.88;;
18280;SDS011;9266;51.132;17.062;2023-06-22T10:52:32;13.07;;;9.77;;
18280;SDS011;9266;51.132;17.062;2023-06-22T10:54:59;9.18;;;8.27;;
18280;SDS011;9266;51.132;17.062;2023-06-22T10:57:26;9.55;;;8.75;;
18280;SDS011;9266;51.132;17.062;2023-06-22T10:59:55;9.43;;;8.63;;
18280;SDS011;9266;51.132;17.062;2023-06-22T11:02:23;9.68;;;8.30;;
18280;SDS011;9266;51.132;17.062;2023-06-22T11:04:50;9.77;;;8.77;;
18280;SDS011;9266;51.132;17.062;2023-06-22T11:07:17;11.73;;;8.70;;
18280;SDS011;9266;51.132;17.062;2023-06-22T11:09:44;9.18;;;8.00;;
18280;SDS011;9266;51.132;17.062;2023-06-22T11:12:11;8.88;;;7.78;;
18280;SDS011;9266;51.132;17.062;2023-06-22T11:14:39;8.80;;;8.00;;
18280;SDS011;9266;51.132;17.062;2023-06-22T11:17:07;10.10;;;9.23;;
18280;SDS011;9266;51.132;17.062;2023-06-22T11:19:35;8.20;;;7.38;;
18280;SDS011;9266;51.132;17.062;2023-06-22T11:22:02;7.90;;;7.10;;
18280;SDS011;9266;51.132;17.062;2023-06-22T11:24:30;7.15;;;6.45;;
18280;SDS011;9266;51.132;17.062;2023-06-22T11:26:57;6.78;;;6.18;;
18280;SDS011;9266;51.132;17.062;2023-06-22T11:29:24;6.90;;;6.30;;
18280;SDS011;9266;51.132;17.062;2023-06-22T11:31:52;7.40;;;6.70;;
18280;SDS011;9266;51.132;17.062;2023-06-22T11:34:20;7.38;;;6.68;;
18280;SDS011;9266;51.132;17.062;2023-06-22T11:36:48;7.90;;;6.75;;
18280;SDS011;9266;51.132;17.062;2023-06-22T11:39:15;7.38;;;6.60;;
18280;SDS011;9266;51.132;17.062;2023-06-22T11:41:42;8.32;;;7.30;;
18280;SDS011;9266;51.132;17.062;2023-06-22T11:44:09;8.50;;;7.70;;
18280;SDS011;9266;51.132;17.062;2023-06-22T11:46:36;8.82;;;7.45;;
18280;SDS011;9266;51.132;17.062;2023-06-22T11:49:03;10.07;;;7.72;;
18280;SDS011;9266;51.132;17.062;2023-06-22T11:51:32;7.82;;;7.13;;
18280;SDS011;9266;51.132;17.062;2023-06-22T11:53:59;8.35;;;7.65;;
18280;SDS011;9266;51.132;17.062;2023-06-22T11:56:27;8.38;;;7.47;;
18280;SDS011;9266;51.132;17.062;2023-06-22T11:58:54;8.32;;;7.63;;
18280;SDS011;9266;51.132;17.062;2023-06-22T12:01:21;9.23;;;8.40;;
18280;SDS011;9266;51.132;17.062;2023-06-22T12:03:49;9.02;;;7.95;;
18280;SDS011;9266;51.132;17.062;2023-06-22T12:06:16;8.77;;;7.90;;
18280;SDS011;9266;51.132;17.062;2023-06-22T12:08:45;8.40;;;7.70;;
18280;SDS011;9266;51.132;17.062;2023-06-22T12:11:12;8.38;;;7.57;;
18280;SDS011;9266;51.132;17.062;2023-06-22T12:13:39;8.68;;;7.78;;
18280;SDS011;9266;51.132;17.062;2023-06-22T12:16:06;8.98;;;8.07;;
18280;SDS011;9266;51.132;17.062;2023-06-22T12:18:33;8.57;;;7.78;;
18280;SDS011;9266;51.132;17.062;2023-06-22T12:21:01;8.85;;;7.97;;
18280;SDS011;9266;51.132;17.062;2023-06-22T12:23:28;9.07;;;8.18;;
18280;SDS011;9266;51.132;17.062;2023-06-22T12:25:57;10.40;;;7.97;;
18280;SDS011;9266;51.132;17.062;2023-06-22T12:28:25;9.05;;;7.63;;
18280;SDS011;9266;51.132;17.062;2023-06-22T12:30:52;8.52;;;7.68;;
18280;SDS011;9266;51.132;17.062;2023-06-22T12:33:19;8.32;;;7.63;;
18280;SDS011;9266;51.132;17.062;2023-06-22T12:35:46;8.27;;;7.53;;
18280;SDS011;9266;51.132;17.062;2023-06-22T12:38:15;8.77;;;7.72;;
18280;SDS011;9266;51.132;17.062;2023-06-22T12:40:42;8.30;;;7.60;;
18280;SDS011;9266;51.132;17.062;2023-06-22T12:43:10;8.63;;;7.43;;
18280;SDS011;9266;51.132;17.062;2023-06-22T12:45:38;8.57;;;7.78;;
18280;SDS011;9266;51.132;17.062;2023-06-22T12:48:05;8.48;;;7.57;;
18280;SDS011;9266;51.132;17.062;2023-06-22T12:50:33;7.97;;;7.22;;
18280;SDS011;9266;51.132;17.062;2023-06-22T12:53:00;9.15;;;8.25;;
18280;SDS011;9266;51.132;17.062;2023-06-22T12:55:29;9.23;;;8.32;;
18280;SDS011;9266;51.132;17.062;2023-06-22T12:57:56;8.85;;;7.95;;
18280;SDS011;9266;51.132;17.062;2023-06-22T13:00:25;9.25;;;8.45;;
18280;SDS011;9266;51.132;17.062;2023-06-22T13:02:52;8.73;;;7.93;;
18280;SDS011;9266;51.132;17.062;2023-06-22T13:05:19;9.02;;;8.13;;
18280;SDS011;9266;51.132;17.062;2023-06-22T13:07:46;8.70;;;7.90;;
18280;SDS011;9266;51.132;17.062;2023-06-22T13:10:14;8.50;;;7.80;;
18280;SDS011;9266;51.132;17.062;2023-06-22T13:12:41;8.77;;;7.97;;
18280;SDS011;9266;51.132;17.062;2023-06-22T13:15:08;8.98;;;7.90;;
18280;SDS011;9266;51.132;17.062;2023-06-22T13:17:37;8.77;;;7.00;;
18280;SDS011;9266;51.132;17.062;2023-06-22T13:20:04;8.88;;;7.03;;
18280;SDS011;9266;51.132;17.062;2023-06-22T13:22:32;9.32;;;7.43;;
18280;SDS011;9266;51.132;17.062;2023-06-22T13:25:05;7.97;;;7.18;;
18280;SDS011;9266;51.132;17.062;2023-06-22T13:27:32;8.98;;;8.10;;
18280;SDS011;9266;51.132;17.062;2023-06-22T13:30:00;8.30;;;7.47;;
18280;SDS011;9266;51.132;17.062;2023-06-22T13:32:27;8.00;;;7.30;;
18280;SDS011;9266;51.132;17.062;2023-06-22T13:34:56;8.15;;;7.35;;
18280;SDS011;9266;51.132;17.062;2023-06-22T13:37:23;9.60;;;7.45;;
18280;SDS011;9266;51.132;17.062;2023-06-22T13:39:51;12.73;;;8.15;;
18280;SDS011;9266;51.132;17.062;2023-06-22T13:42:18;8.75;;;7.85;;
18280;SDS011;9266;51.132;17.062;2023-06-22T13:44:45;9.32;;;7.50;;
18280;SDS011;9266;51.132;17.062;2023-06-22T13:47:12;7.53;;;6.70;;
18280;SDS011;9266;51.132;17.062;2023-06-22T13:49:39;8.10;;;7.30;;
18280;SDS011;9266;51.132;17.062;2023-06-22T13:52:08;7.65;;;6.75;;
18280;SDS011;9266;51.132;17.062;2023-06-22T13:54:37;7.68;;;6.95;;
18280;SDS011;9266;51.132;17.062;2023-06-22T13:57:05;8.40;;;6.88;;
18280;SDS011;9266;51.132;17.062;2023-06-22T13:59:32;8.23;;;7.43;;
18280;SDS011;9266;51.132;17.062;2023-06-22T14:01:59;8.20;;;7.18;;
18280;SDS011;9266;51.132;17.062;2023-06-22T14:04:26;9.27;;;6.85;;
18280;SDS011;9266;51.132;17.062;2023-06-22T14:06:54;6.10;;;5.57;;
18280;SDS011;9266;51.132;17.062;2023-06-22T14:09:23;7.95;;;6.65;;
18280;SDS011;9266;51.132;17.062;2023-06-22T14:11:50;6.47;;;5.80;;
18280;SDS011;9266;51.132;17.062;2023-06-22T14:14:17;8.95;;;5.93;;
18280;SDS011;9266;51.132;17.062;2023-06-22T14:16:44;6.95;;;6.32;;
18280;SDS011;9266;51.132;17.062;2023-06-22T14:19:13;6.93;;;6.10;;
18280;SDS011;9266;51.132;17.062;2023-06-22T14:21:40;6.78;;;5.80;;
18280;SDS011;9266;51.132;17.062;2023-06-22T14:24:07;7.40;;;6.20;;
18280;SDS011;9266;51.132;17.062;2023-06-22T14:26:36;6.97;;;6.28;;
18280;SDS011;9266;51.132;17.062;2023-06-22T14:29:05;7.68;;;5.75;;
18280;SDS011;9266;51.132;17.062;2023-06-22T14:31:32;6.18;;;5.57;;
18280;SDS011;9266;51.132;17.062;2023-06-22T14:34:00;7.50;;;6.05;;